首页
METAR-TAF:

METAR-TAF

机场 :

皮阿尔科国际机场

西班牙港, 特立尼达岛, 千里達及托巴哥

纬度: 10-37N, 经度: 061-21W, 海拔: 12米

当前天气观测

该预报发布于34分钟前的09:00 UTC
风速5节,风向东南
温度 25°C
湿度 94%
气压 1014 hPa
能见度10公里或以上
散云层高于1400英尺

METAR: TTPP 190900Z 13005KT 9999 SCT014 25/24 Q1014 NOSIG

时间: 05:34 (09:34 UTC)

预报

该预报发布于5小时和34分钟前的04:00 UTC
预报有效从19日的 06点(UTC)到 20日的 06点(UTC)
风速节,风向
能见度10公里或以上
少量云层高于1600英尺
几率 30% :
短暂存在
从 19日的 08点(UTC)到 19日的 14点(UTC)
能見度: 7000
多云层高于1500英尺
阵雨
成为
从 19日的 12点(UTC)到 19日的 14点(UTC)
风速10节,风向东转东南
散云层高于2000英尺
成为
从 20日的 00点(UTC)到 20日的 02点(UTC)
风速节,风向
少量云层高于1800英尺

TAF: TTPP 190400Z 1906/2006 00000KT 9999 FEW016 PROB30 TEMPO 1908/1914 7000 SHRA BKN015 BECMG 1912/1914 11010KT SCT020 BECMG 2000/2002 00000KT FEW018

超过4000个机场的气象观测和天气预报(METAR&TAF报告)。

可查询的气象台以黄色和红色小点在地图上表示。

将鼠标移到小点上方,可查看气象台名称。

然后点击查看天气观测和预报。

如需切换地图:点击带黑十字的绿色按钮放大地图;点击带横线的绿色按钮缩小地图;或者点击绿色箭头查看邻近地区的地图。


METAR-TAF: